This is the latest recevied weather packets stored in our database for station/object GW1479. If no packets are shown the sender has not sent any weather packets the latest 10 day(s).
| Time | Temp. | Humidity | Pressure | Rain* | Wind** | Luminosity | Snow |
|---|---|---|---|---|---|---|---|
| 1777991952 | 23.33° C | 56% | 1010.8 hPa | 0 mm | - | - | - |
| 1777990542 | 22.78° C | 56% | 1011.1 hPa | 0 mm | - | - | - |
| 1777988373 | 22.22° C | 59% | 1011.1 hPa | 0 mm | - | - | - |
| 1777987652 | 22.78° C | 57% | 1010.8 hPa | 0 mm | - | - | - |
| 1777981166 | 16.67° C | 83% | 1011.1 hPa | 0 mm | - | - | - |
| 1777980096 | 12.78° C | 99% | 1011.1 hPa | 0 mm | - | - | - |
| 1777972872 | 10° C | 99% | 1009.8 hPa | 0 mm | - | - | - |
| 1777972173 | 10.56° C | 99% | 1009.8 hPa | 0 mm | - | - | - |
| 1777971810 | 10.56° C | 99% | 1009.8 hPa | 0 mm | - | - | - |
| 1777970370 | 10.56° C | 99% | 1009.8 hPa | 0 mm | - | - | - |
| 1777967849 | 11.11° C | 99% | 1009.1 hPa | 0 mm | - | - | - |
| 1777967471 | 11.11° C | 99% | 1009.1 hPa | 0 mm | - | - | - |
| 1777966780 | 11.11° C | 99% | 1009.4 hPa | 0 mm | - | - | - |
| 1777959570 | 11.11° C | 99% | 1009.1 hPa | 0 mm | - | - | - |
| 1777959189 | 11.67° C | 99% | 1009.4 hPa | 0 mm | - | - | - |
| 1777958137 | 11.11° C | 98% | 1009.4 hPa | 0 mm | - | - | - |
| 1777949863 | 13.33° C | 93% | 1009.1 hPa | 0 mm | - | - | - |
| 1777946966 | 14.44° C | 88% | 1009.4 hPa | 0 mm | - | - | - |
| 1777946597 | 15° C | 86% | 1009.4 hPa | 0 mm | - | - | - |
| 1777945158 | 16.67° C | 80% | 1009.4 hPa | 0 mm | - | - | - |
| 1777943737 | 18.33° C | 71% | 1009.1 hPa | 0 mm | - | - | - |
| 1777943011 | 18.89° C | 70% | 1009.1 hPa | 0 mm | - | - | - |
| 1777940113 | 21.11° C | 61% | 1009.1 hPa | 0 mm | - | - | - |
| 1777939035 | 21.67° C | 58% | 1008.8 hPa | 0 mm | - | - | - |
| 1777937622 | 24.44° C | 57% | 1008.8 hPa | 0 mm | - | - | - |
* Rain since midnight (hover to see other rain measurements)
** Current wind speed in m/s (hover to see current wind gust speed)